Time,TemperatureF,DewpointF,PressureIn,WindDirection,WindDirectionDegrees,WindSpeedMPH,WindSpeedGustMPH,Humidity,HourlyPrecipIn,Conditions,Clouds,dailyrainin,SoftwareType,DateUTC
2015-02-27 00:10:00,15.9,9.0,29.59,NE,36,0.0,2.0,75,0.00,,,0.00,weatherlink.com 1.10,2015-02-27 05:10:00,
2015-02-27 00:25:00,15.3,9.0,29.59,NE,36,0.0,2.0,76,0.00,,,0.00,weatherlink.com 1.10,2015-02-27 05:25:00,
2015-02-27 00:40:00,14.6,9.0,29.60,NE,36,0.0,0.0,77,0.00,,,0.00,weatherlink.com 1.10,2015-02-27 05:40:00,
2015-02-27 00:55:00,13.8,8.0,29.60,NE,36,0.0,0.0,79,0.00,,,0.00,weatherlink.com 1.10,2015-02-27 05:55:00,
2015-02-27 01:10:00,13.0,8.0,29.61,NE,36,0.0,0.0,81,0.00,,,0.00,weatherlink.com 1.10,2015-02-27 06:10:00,
2015-02-27 01:25:00,13.0,8.0,29.61,NNE,25,0.0,2.0,81,0.00,,,0.00,weatherlink.com 1.10,2015-02-27 06:25:00,
2015-02-27 01:40:00,13.3,9.0,29.61,NNE,25,0.0,0.0,81,0.00,,,0.00,weatherlink.com 1.10,2015-02-27 06:40:00,
2015-02-27 01:55:00,13.3,9.0,29.62,NNE,25,0.0,0.0,82,0.00,,,0.00,weatherlink.com 1.10,2015-02-27 06:55:00,
2015-02-27 02:10:00,12.9,8.0,29.62,NNE,25,0.0,0.0,82,0.00,,,0.00,weatherlink.com 1.10,2015-02-27 07:10:00,
2015-02-27 02:25:00,12.9,9.0,29.63,NNE,26,0.0,0.0,84,0.00,,,0.00,weatherlink.com 1.10,2015-02-27 07:25:00,
2015-02-27 02:40:00,13.2,9.0,29.63,NNE,25,0.0,0.0,84,0.00,,,0.00,weatherlink.com 1.10,2015-02-27 07:40:00,
2015-02-27 02:56:00,14.4,10.0,29.64,North,354,0.0,3.0,82,0.00,,,0.00,weatherlink.com 1.10,2015-02-27 07:56:00,
2015-02-27 03:10:00,15.2,10.0,29.65,NNW,342,1.0,8.0,81,0.00,,,0.00,weatherlink.com 1.10,2015-02-27 08:10:00,
2015-02-27 03:25:00,15.2,11.0,29.65,NNE,21,4.0,5.0,82,0.00,,,0.00,weatherlink.com 1.10,2015-02-27 08:25:00,
2015-02-27 03:40:00,15.2,11.0,29.66,North,8,0.0,3.0,82,0.00,,,0.00,weatherlink.com 1.10,2015-02-27 08:40:00,
2015-02-27 03:54:00,15.3,11.0,29.66,NW,324,4.0,9.0,82,0.00,,,0.00,weatherlink.com 1.10,2015-02-27 08:54:00,
2015-02-27 04:10:00,15.3,11.0,29.66,NNW,336,0.0,5.0,81,0.00,,,0.00,weatherlink.com 1.10,2015-02-27 09:10:00,
2015-02-27 04:25:00,15.3,10.0,29.68,NE,40,0.0,9.0,79,0.00,,,0.00,weatherlink.com 1.10,2015-02-27 09:25:00,
2015-02-27 04:41:00,14.9,8.0,29.68,NNE,18,2.0,5.0,75,0.00,,,0.00,weatherlink.com 1.10,2015-02-27 09:41:00,
2015-02-27 04:56:00,14.4,8.0,29.68,NNE,14,2.0,6.0,74,0.00,,,0.00,weatherlink.com 1.10,2015-02-27 09:56:00,
2015-02-27 05:11:00,14.0,7.0,29.68,NNE,24,3.0,6.0,73,0.00,,,0.00,weatherlink.com 1.10,2015-02-27 10:11:00,
2015-02-27 05:26:00,13.6,7.0,29.68,NE,35,5.0,7.0,74,0.00,,,0.00,weatherlink.com 1.10,2015-02-27 10:26:00,
2015-02-27 05:41:00,13.3,7.0,29.70,NE,37,3.0,5.0,75,0.00,,,0.00,weatherlink.com 1.10,2015-02-27 10:41:00,
2015-02-27 05:56:00,13.0,7.0,29.71,NE,48,1.0,4.0,76,0.00,,,0.00,weatherlink.com 1.10,2015-02-27 10:56:00,
2015-02-27 06:11:00,12.8,7.0,29.71,NE,48,1.0,2.0,76,0.00,,,0.00,weatherlink.com 1.10,2015-02-27 11:11:00,
2015-02-27 06:26:00,12.5,7.0,29.72,NE,39,1.0,3.0,77,0.00,,,0.00,weatherlink.com 1.10,2015-02-27 11:26:00,
2015-02-27 06:41:00,12.1,6.0,29.72,NE,35,0.0,3.0,77,0.00,,,0.00,weatherlink.com 1.10,2015-02-27 11:41:00,
2015-02-27 06:56:00,11.7,6.0,29.73,North,354,1.0,3.0,78,0.00,,,0.00,weatherlink.com 1.10,2015-02-27 11:56:00,
2015-02-27 07:11:00,11.4,6.0,29.73,North,8,0.0,3.0,79,0.00,,,0.00,weatherlink.com 1.10,2015-02-27 12:11:00,
2015-02-27 07:26:00,11.0,6.0,29.74,North,8,0.0,2.0,79,0.00,,,0.00,weatherlink.com 1.10,2015-02-27 12:26:00,
2015-02-27 07:41:00,11.0,6.0,29.75,North,354,0.0,3.0,79,0.00,,,0.00,weatherlink.com 1.10,2015-02-27 12:41:00,
2015-02-27 07:56:00,11.3,5.0,29.76,NNE,16,0.0,6.0,77,0.00,,,0.00,weatherlink.com 1.10,2015-02-27 12:56:00,
2015-02-27 08:11:00,11.7,5.0,29.77,NW,323,0.0,5.0,75,0.00,,,0.00,weatherlink.com 1.10,2015-02-27 13:11:00,
2015-02-27 08:26:00,12.4,5.0,29.77,NE,43,7.0,7.0,73,0.00,,,0.00,weatherlink.com 1.10,2015-02-27 13:26:00,